createdAt,value
2022-08-12T00:00:09.041Z,72.34
2022-08-12T00:02:55.419Z,72.68
2022-08-12T00:06:04.360Z,73.10
2022-08-12T00:08:52.441Z,72.77
2022-08-12T00:11:38.733Z,73.16
2022-08-12T00:14:24.211Z,73.83
2022-08-12T00:17:10.046Z,74.64
2022-08-12T00:19:55.447Z,74.98
2022-08-12T00:22:41.739Z,74.70
2022-08-12T00:26:00.365Z,75.05
2022-08-12T00:28:35.351Z,74.73
2022-08-12T00:31:21.503Z,74.75
2022-08-12T00:34:06.744Z,74.37
2022-08-12T00:36:52.351Z,74.77
2022-08-12T00:39:39.161Z,75.12
2022-08-12T00:42:12.646Z,75.09
2022-08-12T00:44:44.909Z,74.95
2022-08-12T00:47:24.678Z,75.11
2022-08-12T00:49:55.803Z,75.45
2022-08-12T00:52:23.832Z,75.79
2022-08-12T00:54:59.633Z,75.49
2022-08-12T00:57:29.920Z,75.85
2022-08-12T01:00:01.115Z,75.86
2022-08-12T01:02:37.221Z,76.20
2022-08-12T01:05:31.979Z,76.80
2022-08-12T01:08:17.443Z,76.61
2022-08-12T01:11:03.762Z,75.99
2022-08-12T01:13:33.203Z,76.44
2022-08-12T01:16:04.914Z,76.14
2022-08-12T01:18:34.356Z,76.38
2022-08-12T01:21:19.330Z,76.18
2022-08-12T01:24:31.035Z,75.58
2022-08-12T01:26:58.404Z,75.97
2022-08-12T01:29:32.461Z,76.51
2022-08-12T01:32:08.565Z,76.80
2022-08-12T01:34:39.713Z,76.75
2022-08-12T01:37:08.871Z,76.78
2022-08-12T01:40:33.883Z,76.50
2022-08-12T01:42:43.430Z,77.11
2022-08-12T01:45:12.376Z,77.27
2022-08-12T01:48:03.754Z,77.67
2022-08-12T01:51:00.327Z,77.79
2022-08-12T01:53:55.720Z,78.18
2022-08-12T01:56:25.612Z,78.02
2022-08-12T01:59:15.894Z,77.52
2022-08-12T02:01:46.324Z,77.15
2022-08-12T02:05:01.391Z,77.12
2022-08-12T02:07:59.191Z,77.83
2022-08-12T02:10:53.543Z,78.38
2022-08-12T02:13:49.176Z,78.53
2022-08-12T02:16:31.918Z,78.84
2022-08-12T02:19:22.659Z,78.34
2022-08-12T02:21:56.134Z,78.24
2022-08-12T02:24:24.772Z,78.61
2022-08-12T02:26:58.007Z,78.82
2022-08-12T02:29:25.590Z,78.73
2022-08-12T02:31:53.730Z,78.85
2022-08-12T02:34:23.070Z,78.85
2022-08-12T02:36:54.133Z,78.37
2022-08-12T02:39:25.653Z,79.17
2022-08-12T02:41:56.800Z,79.21
2022-08-12T02:44:25.483Z,78.75
2022-08-12T02:46:56.491Z,78.45
2022-08-12T02:49:29.943Z,78.58
2022-08-12T02:51:58.110Z,78.13
2022-08-12T02:54:26.343Z,78.76
2022-08-12T02:56:54.409Z,78.98
2022-08-12T02:59:26.361Z,79.01
2022-08-12T03:02:03.495Z,79.37
2022-08-12T03:04:43.433Z,79.52
2022-08-12T03:07:32.680Z,78.98
2022-08-12T03:10:18.063Z,79.11
2022-08-12T03:12:53.610Z,79.55
2022-08-12T03:15:24.003Z,79.43
2022-08-12T03:18:24.062Z,79.30
2022-08-12T03:20:54.889Z,79.63
2022-08-12T03:23:29.874Z,79.56
2022-08-12T03:26:00.593Z,79.30
2022-08-12T03:28:49.230Z,79.29
2022-08-12T03:31:17.695Z,78.88
2022-08-12T03:34:00.936Z,79.46
2022-08-12T03:36:35.188Z,79.56
2022-08-12T03:39:17.623Z,79.23
2022-08-12T03:42:00.131Z,79.37
2022-08-12T03:45:06.249Z,79.56
2022-08-12T03:47:55.801Z,79.56
2022-08-12T03:50:41.485Z,80.08
2022-08-12T03:53:27.864Z,79.98
2022-08-12T03:56:14.029Z,80.11
2022-08-12T03:59:00.362Z,79.93
2022-08-12T04:01:27.237Z,79.71
2022-08-12T04:03:54.970Z,81.04
2022-08-12T04:06:34.760Z,79.39
2022-08-12T04:09:15.531Z,79.91
2022-08-12T04:12:04.324Z,79.87
2022-08-12T04:14:32.576Z,79.95
2022-08-12T04:17:00.408Z,79.84
2022-08-12T04:19:27.979Z,79.45
2022-08-12T04:22:01.966Z,79.72
2022-08-12T04:24:35.519Z,79.89
2022-08-12T04:27:08.665Z,79.99
2022-08-12T04:30:21.281Z,79.68
2022-08-12T04:32:25.208Z,79.27
2022-08-12T04:34:52.621Z,79.15
2022-08-12T04:37:19.716Z,79.59
2022-08-12T04:39:47.778Z,79.87
2022-08-12T04:42:14.781Z,80.14
2022-08-12T04:44:42.416Z,79.82
2022-08-12T04:47:14.185Z,80.08
2022-08-12T04:49:44.045Z,80.35
2022-08-12T04:52:11.366Z,79.42
2022-08-12T04:54:38.244Z,78.04
2022-08-12T04:57:06.162Z,76.55
2022-08-12T04:59:47.677Z,75.21
2022-08-12T05:02:21.076Z,74.60
2022-08-12T05:04:55.663Z,73.48
2022-08-12T05:07:23.261Z,73.80
2022-08-12T05:10:00.998Z,73.25
2022-08-12T05:12:38.865Z,72.48
2022-08-12T05:15:19.581Z,71.71
2022-08-12T05:17:54.221Z,73.04
2022-08-12T05:20:22.625Z,73.35
2022-08-12T05:22:50.054Z,73.33
2022-08-12T05:25:22.345Z,72.42
2022-08-12T05:27:55.505Z,72.42
2022-08-12T05:30:30.841Z,72.55
2022-08-12T05:33:00.009Z,73.03
2022-08-12T05:35:28.005Z,72.75
2022-08-12T05:38:14.945Z,72.27
2022-08-12T05:40:42.286Z,72.25
2022-08-12T05:43:09.162Z,72.32
2022-08-12T05:45:37.503Z,71.79
2022-08-12T05:48:08.172Z,71.87
2022-08-12T05:50:38.165Z,72.48
2022-08-12T05:53:06.967Z,72.54
2022-08-12T05:55:35.265Z,72.56
2022-08-12T05:58:05.039Z,71.36
2022-08-12T06:00:32.663Z,69.20
2022-08-12T06:03:03.290Z,67.39
2022-08-12T06:05:54.275Z,67.69
2022-08-12T06:08:25.059Z,66.40
2022-08-12T06:10:52.688Z,64.94
2022-08-12T06:13:28.542Z,64.39
2022-08-12T06:16:07.459Z,64.63
2022-08-12T06:18:34.488Z,64.94
2022-08-12T06:21:02.387Z,64.07
2022-08-12T06:23:30.217Z,62.82
2022-08-12T06:25:58.932Z,64.20
2022-08-12T06:28:30.438Z,63.04
2022-08-12T06:31:24.215Z,62.99
2022-08-12T06:34:00.258Z,61.21
2022-08-12T06:36:34.394Z,56.84
2022-08-12T06:39:01.407Z,53.66
2022-08-12T06:42:30.835Z,52.71
2022-08-12T06:44:33.389Z,52.75
2022-08-12T06:47:00.551Z,52.79
2022-08-12T06:49:28.268Z,51.89
2022-08-12T06:51:56.389Z,51.11
2022-08-12T06:54:30.910Z,52.63
2022-08-12T06:57:04.083Z,52.40
2022-08-12T06:59:32.361Z,52.14
2022-08-12T07:01:59.270Z,51.37
2022-08-12T07:04:41.539Z,50.76
2022-08-12T07:07:09.541Z,50.69
2022-08-12T07:10:03.719Z,50.59
2022-08-12T07:12:29.521Z,50.11
2022-08-12T07:14:57.550Z,48.86
2022-08-12T07:17:25.038Z,46.93
2022-08-12T07:19:53.564Z,46.89
2022-08-12T07:22:23.197Z,48.66
2022-08-12T07:25:10.170Z,49.50
2022-08-12T07:27:42.616Z,49.60
2022-08-12T07:30:10.427Z,48.70
2022-08-12T07:32:37.321Z,47.15
2022-08-12T07:35:04.651Z,47.62
2022-08-12T07:37:31.412Z,47.61
2022-08-12T07:40:00.462Z,46.80
2022-08-12T07:42:29.521Z,46.56
2022-08-12T07:44:56.952Z,45.87
2022-08-12T07:47:24.508Z,46.21
2022-08-12T07:50:05.461Z,46.87
2022-08-12T07:52:42.938Z,46.83
2022-08-12T07:55:10.899Z,46.53
2022-08-12T07:57:58.039Z,47.96
2022-08-12T08:00:29.790Z,48.04
2022-08-12T08:02:56.581Z,48.28
2022-08-12T08:05:25.996Z,47.10
2022-08-12T08:07:53.621Z,47.57
2022-08-12T08:10:20.956Z,46.93
2022-08-12T08:12:53.558Z,47.21
2022-08-12T08:15:38.575Z,47.67
2022-08-12T08:18:13.247Z,48.95
2022-08-12T08:20:45.784Z,49.16
2022-08-12T08:23:18.343Z,49.17
2022-08-12T08:25:45.731Z,47.83
2022-08-12T08:28:18.741Z,47.83
2022-08-12T08:30:49.581Z,48.28
2022-08-12T08:33:23.505Z,45.88
2022-08-12T08:36:07.610Z,45.04
2022-08-12T08:38:58.153Z,46.09
2022-08-12T08:42:15.533Z,47.11
2022-08-12T08:44:36.351Z,44.30
2022-08-12T08:47:06.348Z,43.90
2022-08-12T08:49:35.190Z,44.40
2022-08-12T08:52:09.393Z,43.96
2022-08-12T08:54:37.718Z,44.00
2022-08-12T08:57:08.368Z,43.75
2022-08-12T08:59:35.665Z,41.77
2022-08-12T09:02:02.643Z,39.41
2022-08-12T09:07:51.101Z,39.23
2022-08-12T09:10:15.549Z,37.30
2022-08-12T09:13:22.877Z,37.90
2022-08-12T09:15:59.743Z,35.66
2022-08-12T09:18:33.430Z,35.33
2022-08-12T09:21:01.957Z,34.24
2022-08-12T09:24:00.981Z,34.53
2022-08-12T09:26:20.463Z,33.09
2022-08-12T09:28:52.867Z,32.89
2022-08-12T09:32:07.061Z,32.50
2022-08-12T09:34:29.116Z,31.73
2022-08-12T09:37:02.414Z,30.42
2022-08-12T09:40:05.372Z,28.54
2022-08-12T09:43:11.798Z,29.77
2022-08-12T09:46:12.117Z,27.65
2022-08-12T09:48:34.966Z,28.63
2022-08-12T09:51:04.506Z,28.07
2022-08-12T09:53:39.658Z,28.08
2022-08-12T09:56:58.100Z,28.37
2022-08-12T09:58:59.879Z,26.40
2022-08-12T10:01:35.750Z,26.35
2022-08-12T10:04:19.241Z,25.01
2022-08-12T10:06:54.118Z,26.14
2022-08-12T10:09:28.641Z,25.51
2022-08-12T10:12:31.445Z,25.81
2022-08-12T10:15:01.790Z,25.84
2022-08-12T10:17:28.829Z,24.59
2022-08-12T10:19:55.685Z,24.85
2022-08-12T10:22:36.559Z,24.81
2022-08-12T10:26:25.743Z,24.78
2022-08-12T10:28:38.300Z,24.43
2022-08-12T10:31:06.662Z,23.53
2022-08-12T10:34:05.097Z,22.98
2022-08-12T10:36:43.081Z,23.40
2022-08-12T10:39:59.176Z,22.56
2022-08-12T10:42:29.090Z,22.83
2022-08-12T10:45:01.050Z,22.63
2022-08-12T10:48:07.287Z,22.21
2022-08-12T10:50:28.316Z,22.27
2022-08-12T10:53:09.084Z,21.62
2022-08-12T10:55:36.508Z,21.32
2022-08-12T10:58:14.638Z,20.41
2022-08-12T11:01:25.623Z,21.73
2022-08-12T11:04:27.575Z,21.44
2022-08-12T11:07:06.492Z,21.66
2022-08-12T11:09:11.776Z,20.79
2022-08-12T11:12:36.982Z,20.04
2022-08-12T11:14:49.287Z,20.15
2022-08-12T11:17:43.094Z,20.25
2022-08-12T11:20:05.216Z,20.13
2022-08-12T11:22:32.814Z,20.58
2022-08-12T11:25:00.813Z,20.74
2022-08-12T11:27:29.491Z,21.10
2022-08-12T11:30:01.649Z,21.29
2022-08-12T11:32:38.731Z,19.65
2022-08-12T11:35:06.904Z,18.60
2022-08-12T11:37:39.985Z,21.22
2022-08-12T11:40:23.136Z,20.54
2022-08-12T11:42:52.059Z,20.82
2022-08-12T11:45:19.742Z,20.26
2022-08-12T11:48:01.741Z,21.11
2022-08-12T11:50:32.448Z,20.44
2022-08-12T11:52:59.789Z,19.53
2022-08-12T11:55:29.458Z,20.27
2022-08-12T11:58:09.499Z,19.41
2022-08-12T12:03:44.154Z,20.46
2022-08-12T12:06:17.949Z,18.44
2022-08-12T12:08:52.774Z,18.93
2022-08-12T12:11:22.298Z,18.67
2022-08-12T12:14:08.005Z,18.57
2022-08-12T12:16:39.774Z,19.05
2022-08-12T12:19:10.147Z,17.95
2022-08-12T12:21:47.009Z,19.51
2022-08-12T12:24:21.300Z,19.38
2022-08-12T12:27:00.494Z,19.12
2022-08-12T12:30:13.648Z,18.33
2022-08-12T12:32:16.611Z,18.01
2022-08-12T12:35:23.437Z,17.81
2022-08-12T12:38:03.485Z,18.32
2022-08-12T12:40:18.085Z,17.74
2022-08-12T12:43:01.700Z,20.35
2022-08-12T12:45:33.375Z,21.47
2022-08-12T12:48:08.442Z,23.33
2022-08-12T12:50:45.275Z,23.68
2022-08-12T12:54:05.804Z,24.33
2022-08-12T12:56:15.493Z,24.42
2022-08-12T12:58:43.860Z,25.52
2022-08-12T13:01:27.972Z,24.65
2022-08-12T13:04:01.849Z,25.95
2022-08-12T13:06:30.919Z,25.56
2022-08-12T13:09:03.088Z,25.15
2022-08-12T13:11:44.393Z,26.84
2022-08-12T13:14:29.284Z,26.47
2022-08-12T13:17:02.736Z,25.88
2022-08-12T13:19:38.722Z,25.87
2022-08-12T13:22:18.805Z,25.68
2022-08-12T13:24:55.039Z,27.16
2022-08-12T13:27:34.664Z,26.84
2022-08-12T13:30:15.477Z,27.57
2022-08-12T13:32:57.281Z,26.69
2022-08-12T13:36:04.865Z,26.71
2022-08-12T13:38:52.096Z,27.29
2022-08-12T13:41:33.550Z,27.26
2022-08-12T13:44:05.191Z,26.23
2022-08-12T13:46:32.732Z,27.64
2022-08-12T13:48:59.535Z,27.91
2022-08-12T13:51:26.949Z,28.83
2022-08-12T13:54:11.634Z,27.69
2022-08-12T13:56:40.981Z,28.50
2022-08-12T13:59:08.800Z,28.90
2022-08-12T14:01:40.532Z,29.07
2022-08-12T14:04:11.619Z,28.65
2022-08-12T14:06:40.103Z,28.57
2022-08-12T14:09:15.556Z,26.99
2022-08-12T14:11:48.281Z,27.05
2022-08-12T14:14:25.387Z,26.81
2022-08-12T14:16:53.801Z,27.63
2022-08-12T14:19:24.544Z,28.18
2022-08-12T14:22:00.501Z,29.13
2022-08-12T14:24:40.616Z,29.16
2022-08-12T14:27:10.504Z,26.94
2022-08-12T14:30:05.658Z,26.93
2022-08-12T14:32:35.320Z,25.39
2022-08-12T14:35:08.954Z,24.17
2022-08-12T14:37:54.871Z,26.54
2022-08-12T14:40:27.968Z,27.91
2022-08-12T14:42:57.200Z,24.98
2022-08-12T14:45:45.292Z,25.91
2022-08-12T14:48:19.439Z,27.01
2022-08-12T14:51:09.520Z,25.85
2022-08-12T14:59:56.281Z,23.27
2022-08-12T15:02:21.375Z,23.05
2022-08-12T15:05:03.872Z,22.78
2022-08-12T15:07:33.426Z,21.11
2022-08-12T15:10:31.684Z,20.59
2022-08-12T15:13:07.274Z,19.56
2022-08-12T15:15:44.126Z,20.22
2022-08-12T15:18:20.858Z,20.37
2022-08-12T15:20:50.686Z,20.04
2022-08-12T15:23:21.632Z,20.00
2022-08-12T15:26:02.808Z,21.95
2022-08-12T15:28:33.329Z,22.74
2022-08-12T15:31:02.234Z,23.34
2022-08-12T15:33:46.150Z,23.19
2022-08-12T15:36:19.168Z,23.37
2022-08-12T15:38:46.772Z,23.18
2022-08-12T15:41:14.750Z,23.38
2022-08-12T15:44:17.161Z,24.14
2022-08-12T15:46:32.674Z,24.40
2022-08-12T15:48:59.876Z,24.75
2022-08-12T15:51:57.397Z,25.08
2022-08-12T15:54:34.343Z,25.48
2022-08-12T15:57:05.809Z,25.39
2022-08-12T16:00:00.425Z,25.56
2022-08-12T16:02:23.178Z,24.78
2022-08-12T16:04:54.511Z,25.85
2022-08-12T16:07:29.801Z,25.91
2022-08-12T16:10:05.941Z,26.68
2022-08-12T16:12:39.530Z,26.20
2022-08-12T16:15:08.363Z,27.78
2022-08-12T16:17:41.362Z,26.94
2022-08-12T16:20:33.121Z,26.57
2022-08-12T16:23:36.597Z,26.58
2022-08-12T16:26:06.274Z,26.64
2022-08-12T16:28:44.232Z,27.61
2022-08-12T16:31:22.582Z,28.16
2022-08-12T16:33:59.790Z,28.77
2022-08-12T16:36:29.357Z,29.13
2022-08-12T16:38:56.515Z,29.61
2022-08-12T16:41:23.835Z,30.86
2022-08-12T16:43:52.939Z,31.09
2022-08-12T16:46:31.739Z,31.23
2022-08-12T16:49:09.381Z,30.96
2022-08-12T16:51:46.314Z,31.22
2022-08-12T16:54:16.467Z,32.20
2022-08-12T16:56:54.875Z,32.73
2022-08-12T16:59:30.967Z,32.97
2022-08-12T17:02:31.124Z,33.90
2022-08-12T17:05:03.329Z,33.79
2022-08-12T17:07:36.523Z,33.64
2022-08-12T17:10:06.636Z,33.86
2022-08-12T17:12:33.794Z,34.41
2022-08-12T17:15:50.512Z,34.83
2022-08-12T17:18:15.469Z,34.84
2022-08-12T17:20:46.862Z,35.09
2022-08-12T17:23:16.634Z,35.53
2022-08-12T17:25:48.832Z,35.48
2022-08-12T17:28:17.144Z,35.50
2022-08-12T17:30:51.303Z,35.53
2022-08-12T17:33:27.670Z,36.66
2022-08-12T17:35:58.475Z,36.46
2022-08-12T17:38:25.584Z,36.05
2022-08-12T17:40:54.544Z,38.17
2022-08-12T17:43:56.247Z,38.67
2022-08-12T17:46:13.011Z,38.82
2022-08-12T17:48:55.363Z,37.83
2022-08-12T17:51:24.385Z,38.09
2022-08-12T17:54:11.416Z,38.91
2022-08-12T17:56:41.231Z,38.53
2022-08-12T17:59:12.599Z,38.65
2022-08-12T18:01:45.249Z,38.78
2022-08-12T18:04:21.328Z,38.47
2022-08-12T18:06:55.749Z,35.69
2022-08-12T18:09:32.019Z,36.48
2022-08-12T18:12:27.239Z,38.37
2022-08-12T18:15:00.561Z,37.37
2022-08-12T18:17:39.276Z,36.17
2022-08-12T18:20:08.728Z,35.70
2022-08-12T18:22:44.604Z,36.21
2022-08-12T18:26:14.395Z,37.11
2022-08-12T18:28:31.772Z,36.05
2022-08-12T18:31:03.131Z,35.80
2022-08-12T18:33:44.018Z,35.99
2022-08-12T18:36:14.524Z,37.07
2022-08-12T18:38:55.832Z,35.99
2022-08-12T18:41:34.512Z,36.92
2022-08-12T18:44:07.992Z,37.17
2022-08-12T18:46:55.297Z,37.24
2022-08-12T18:49:32.019Z,37.40
2022-08-12T18:52:05.396Z,37.36
2022-08-12T18:54:35.138Z,36.46
2022-08-12T18:57:07.299Z,37.08
2022-08-12T19:00:00.330Z,37.56
2022-08-12T19:02:32.996Z,37.20
2022-08-12T19:05:09.799Z,37.41
2022-08-12T19:07:59.920Z,37.55
2022-08-12T19:10:31.452Z,37.53
2022-08-12T19:13:24.032Z,37.59
2022-08-12T19:15:57.796Z,39.00
2022-08-12T19:18:29.589Z,39.10
2022-08-12T19:20:58.793Z,39.35
2022-08-12T19:23:35.014Z,39.48
2022-08-12T19:26:05.174Z,39.13
2022-08-12T19:28:42.864Z,38.94
2022-08-12T19:31:44.636Z,39.76
2022-08-12T19:35:54.002Z,40.18
2022-08-12T19:38:03.734Z,40.50
2022-08-12T19:40:35.331Z,41.16
2022-08-12T19:43:20.046Z,40.86
2022-08-12T19:45:51.536Z,40.78
2022-08-12T19:48:21.946Z,40.62
2022-08-12T19:50:53.529Z,41.00
2022-08-12T19:53:25.290Z,41.36
2022-08-12T19:55:57.406Z,41.10
2022-08-12T19:58:25.577Z,40.73
2022-08-12T20:00:54.898Z,40.91
2022-08-12T20:03:37.913Z,41.34
2022-08-12T20:06:13.833Z,41.59
2022-08-12T20:08:47.766Z,42.10
2022-08-12T20:12:13.460Z,42.16
2022-08-12T20:14:07.055Z,42.52
2022-08-12T20:16:57.498Z,43.41
2022-08-12T20:19:52.697Z,43.42
2022-08-12T20:22:24.456Z,43.95
2022-08-12T20:25:08.968Z,43.84
2022-08-12T20:28:04.349Z,44.36
2022-08-12T20:30:37.406Z,44.64
2022-08-12T20:33:17.872Z,45.48
2022-08-12T20:36:13.784Z,45.13
2022-08-12T20:38:40.426Z,45.77
2022-08-12T20:41:17.849Z,45.15
2022-08-12T20:43:52.217Z,45.18
2022-08-12T20:46:21.104Z,45.98
2022-08-12T20:48:54.923Z,46.84
2022-08-12T20:51:27.509Z,47.11
2022-08-12T20:53:59.044Z,47.38
2022-08-12T20:56:30.725Z,46.99
2022-08-12T20:59:00.992Z,47.46
2022-08-12T21:01:46.684Z,47.73
2022-08-12T21:04:36.770Z,49.25
2022-08-12T21:07:08.936Z,50.00
2022-08-12T21:09:40.630Z,49.76
2022-08-12T21:12:28.437Z,50.40
2022-08-12T21:15:23.378Z,51.50
2022-08-12T21:18:08.733Z,51.98
2022-08-12T21:20:37.107Z,50.71
2022-08-12T21:23:06.382Z,51.50
2022-08-12T21:25:44.569Z,51.34
2022-08-12T21:28:13.645Z,52.13
2022-08-12T21:31:11.170Z,51.32
2022-08-12T21:34:06.190Z,51.66
2022-08-12T21:36:32.036Z,52.04
2022-08-12T21:39:18.846Z,52.12
2022-08-12T21:41:52.937Z,49.86
2022-08-12T21:44:24.258Z,49.58
2022-08-12T21:47:21.461Z,50.88
2022-08-12T21:50:02.495Z,50.48
2022-08-12T21:52:49.144Z,48.31
2022-08-12T21:55:19.729Z,47.36
2022-08-12T21:57:53.241Z,48.16
2022-08-12T22:00:33.489Z,48.86
2022-08-12T22:04:03.771Z,49.16
2022-08-12T22:06:30.692Z,48.25
2022-08-12T22:09:08.901Z,48.37
2022-08-12T22:11:56.253Z,48.36
2022-08-12T22:14:24.251Z,48.37
2022-08-12T22:16:55.742Z,48.60
2022-08-12T22:19:23.391Z,48.62
2022-08-12T22:21:53.892Z,48.66
2022-08-12T22:24:26.665Z,48.92
2022-08-12T22:27:08.042Z,48.95
2022-08-12T22:30:07.706Z,49.66
2022-08-12T22:32:44.839Z,49.76
2022-08-12T22:35:47.539Z,50.46
2022-08-12T22:38:23.431Z,50.02
2022-08-12T22:40:53.050Z,49.97
2022-08-12T22:44:00.060Z,50.40
2022-08-12T22:46:26.672Z,50.72
2022-08-12T22:48:57.505Z,50.97
2022-08-12T22:51:24.422Z,51.43
2022-08-12T22:53:55.545Z,50.88
2022-08-12T22:56:30.886Z,50.30
2022-08-12T22:59:02.665Z,51.01
2022-08-12T23:02:01.493Z,50.87
2022-08-12T23:04:27.994Z,51.87
2022-08-12T23:06:58.234Z,51.41
2022-08-12T23:09:44.788Z,51.91
2022-08-12T23:12:34.775Z,52.72
2022-08-12T23:15:05.350Z,52.78
2022-08-12T23:17:41.078Z,52.83
2022-08-12T23:20:11.157Z,52.93
2022-08-12T23:22:40.215Z,53.01
2022-08-12T23:25:19.116Z,52.98
2022-08-12T23:28:30.154Z,53.08
2022-08-12T23:30:58.767Z,53.12
2022-08-12T23:34:00.773Z,53.01
2022-08-12T23:36:31.815Z,53.39
2022-08-12T23:40:13.606Z,53.66
2022-08-12T23:42:16.836Z,53.84
2022-08-12T23:44:48.669Z,53.79
2022-08-12T23:47:21.239Z,54.30
2022-08-12T23:49:57.395Z,54.55
2022-08-12T23:52:28.586Z,54.90
2022-08-12T23:55:23.524Z,55.33
2022-08-12T23:58:21.340Z,55.28
